createdAt,value
2018-05-29T00:00:22.766Z,22.10
2018-05-29T00:02:49.559Z,18.83
2018-05-29T00:05:16.296Z,19.23
2018-05-29T00:07:43.081Z,20.77
2018-05-29T00:10:09.837Z,17.47
2018-05-29T00:12:36.601Z,22.83
2018-05-29T00:15:03.446Z,16.80
2018-05-29T00:17:30.228Z,20.47
2018-05-29T00:19:57.009Z,20.07
2018-05-29T00:22:23.831Z,21.30
2018-05-29T00:24:50.892Z,18.77
2018-05-29T00:27:17.660Z,21.93
2018-05-29T00:29:44.454Z,21.03
2018-05-29T00:32:11.230Z,18.80
2018-05-29T00:34:37.992Z,17.03
2018-05-29T00:37:04.814Z,17.53
2018-05-29T00:39:31.579Z,16.97
2018-05-29T00:41:59.001Z,17.00
2018-05-29T00:44:25.819Z,23.07
2018-05-29T00:46:52.591Z,17.77
2018-05-29T00:49:19.332Z,16.90
2018-05-29T00:51:46.117Z,18.83
2018-05-29T00:54:12.884Z,20.53
2018-05-29T00:56:39.635Z,17.87
2018-05-29T00:59:06.421Z,14.40
2018-05-29T01:01:33.185Z,19.77
2018-05-29T01:03:59.947Z,17.70
2018-05-29T01:06:27.515Z,18.20
2018-05-29T01:08:54.273Z,15.97
2018-05-29T01:11:21.040Z,19.00
2018-05-29T01:13:47.832Z,16.43
2018-05-29T01:16:14.586Z,17.63
2018-05-29T01:18:41.343Z,16.40
2018-05-29T01:21:08.122Z,15.43
2018-05-29T01:23:34.890Z,16.83
2018-05-29T01:26:01.665Z,16.90
2018-05-29T01:28:28.471Z,14.97
2018-05-29T01:30:55.227Z,19.47
2018-05-29T01:33:22.014Z,34.90
2018-05-29T01:35:48.809Z,17.13
2018-05-29T01:38:15.577Z,15.67
2018-05-29T01:40:42.342Z,13.60
2018-05-29T01:43:09.143Z,12.90
2018-05-29T01:45:35.896Z,13.07
2018-05-29T01:48:02.659Z,15.20
2018-05-29T01:50:29.460Z,12.07
2018-05-29T01:52:56.941Z,14.10
2018-05-29T01:55:23.684Z,17.07
2018-05-29T01:57:50.469Z,9.77
2018-05-29T02:00:17.231Z,11.80
2018-05-29T02:02:44.034Z,18.80
2018-05-29T02:05:10.809Z,18.03
2018-05-29T02:07:37.574Z,12.93
2018-05-29T02:10:04.329Z,15.03
2018-05-29T02:12:31.162Z,15.20
2018-05-29T02:14:57.913Z,14.97
2018-05-29T02:17:24.680Z,11.90
2018-05-29T02:19:51.484Z,15.53
2018-05-29T02:22:18.268Z,14.53
2018-05-29T02:24:45.036Z,14.33
2018-05-29T02:27:11.822Z,16.53
2018-05-29T02:29:38.600Z,11.63
2018-05-29T02:32:05.370Z,12.80
2018-05-29T02:34:32.188Z,15.43
2018-05-29T02:36:58.924Z,15.03
2018-05-29T02:39:25.693Z,26.13
2018-05-29T02:41:52.507Z,16.00
2018-05-29T02:44:19.273Z,14.30
2018-05-29T02:46:46.008Z,11.50
2018-05-29T02:49:12.817Z,13.47
2018-05-29T02:51:39.559Z,13.87
2018-05-29T02:54:06.298Z,13.53
2018-05-29T02:56:33.105Z,17.90
2018-05-29T02:58:59.868Z,17.00
2018-05-29T03:01:26.628Z,12.63
2018-05-29T03:03:53.426Z,10.80
2018-05-29T03:06:20.165Z,10.87
2018-05-29T03:08:46.946Z,9.10
2018-05-29T03:11:13.752Z,15.03
2018-05-29T03:13:40.485Z,13.53
2018-05-29T03:16:07.228Z,11.83
2018-05-29T03:18:34.018Z,12.77
2018-05-29T03:21:00.953Z,10.17
2018-05-29T03:23:27.683Z,10.70
2018-05-29T03:25:54.468Z,11.90
2018-05-29T03:28:21.244Z,10.07
2018-05-29T03:30:48.012Z,11.97
2018-05-29T03:33:14.791Z,12.10
2018-05-29T03:35:41.565Z,9.53
2018-05-29T03:38:08.301Z,8.10
2018-05-29T03:40:35.109Z,10.30
2018-05-29T03:43:01.882Z,9.23
2018-05-29T03:45:28.629Z,10.67
2018-05-29T03:47:55.416Z,9.93
2018-05-29T03:50:22.664Z,11.23
2018-05-29T03:52:49.795Z,10.60
2018-05-29T03:55:17.667Z,12.60
2018-05-29T03:57:44.435Z,8.77
2018-05-29T04:00:11.197Z,16.77
2018-05-29T04:02:37.991Z,11.90
2018-05-29T04:05:04.749Z,11.40
2018-05-29T04:07:31.493Z,8.70
2018-05-29T04:09:58.320Z,13.23
2018-05-29T04:12:25.324Z,9.77
2018-05-29T04:14:52.103Z,9.87
2018-05-29T04:17:18.904Z,9.67
2018-05-29T04:19:45.657Z,14.93
2018-05-29T04:22:12.400Z,25.37
2018-05-29T04:24:39.224Z,10.03
2018-05-29T04:27:05.965Z,11.00
2018-05-29T04:29:32.711Z,10.90
2018-05-29T04:31:59.493Z,10.67
2018-05-29T04:34:26.234Z,11.00
2018-05-29T04:36:52.977Z,14.93
2018-05-29T04:39:19.748Z,13.20
2018-05-29T04:41:46.518Z,14.90
2018-05-29T04:44:13.299Z,12.57
2018-05-29T04:46:40.112Z,10.23
2018-05-29T04:49:06.883Z,12.70
2018-05-29T04:51:33.625Z,17.97
2018-05-29T04:54:00.413Z,8.37
2018-05-29T04:56:27.190Z,14.53
2018-05-29T04:58:53.934Z,15.20
2018-05-29T05:01:20.724Z,13.50
2018-05-29T05:03:47.516Z,17.53
2018-05-29T05:06:14.285Z,21.87
2018-05-29T05:08:41.084Z,16.60
2018-05-29T05:11:07.848Z,15.87
2018-05-29T05:13:34.941Z,14.10
2018-05-29T05:16:01.732Z,16.10
2018-05-29T05:18:28.835Z,12.10
2018-05-29T05:20:55.600Z,16.43
2018-05-29T05:23:22.380Z,11.77
2018-05-29T05:25:49.137Z,14.77
2018-05-29T05:28:15.916Z,15.63
2018-05-29T05:30:42.703Z,16.00
2018-05-29T05:33:09.907Z,13.57
2018-05-29T05:35:36.649Z,16.93
2018-05-29T05:38:03.457Z,21.20
2018-05-29T05:40:30.209Z,15.77
2018-05-29T05:42:56.964Z,14.47
2018-05-29T05:45:23.792Z,17.60
2018-05-29T05:47:50.556Z,16.83
2018-05-29T05:50:17.340Z,12.83
2018-05-29T05:52:44.195Z,12.73
2018-05-29T05:55:10.947Z,13.10
2018-05-29T05:57:37.723Z,14.37
2018-05-29T06:00:05.272Z,19.10
2018-05-29T06:02:32.011Z,22.30
2018-05-29T06:04:58.797Z,16.40
2018-05-29T06:07:25.580Z,16.63
2018-05-29T06:09:52.333Z,16.30
2018-05-29T06:12:19.091Z,11.23
2018-05-29T06:14:45.899Z,15.70
2018-05-29T06:17:12.649Z,18.47
2018-05-29T06:19:39.450Z,12.30
2018-05-29T06:22:06.235Z,12.67
2018-05-29T06:24:33.017Z,10.23
2018-05-29T06:26:59.774Z,9.50
2018-05-29T06:29:26.579Z,10.77
2018-05-29T06:31:53.318Z,15.57
2018-05-29T06:34:20.061Z,13.73
2018-05-29T06:36:46.870Z,16.23
2018-05-29T06:39:13.623Z,11.50
2018-05-29T06:41:40.364Z,14.37
2018-05-29T06:44:07.153Z,9.80
2018-05-29T06:46:33.904Z,24.63
2018-05-29T06:49:00.696Z,8.90
2018-05-29T06:51:27.551Z,11.47
2018-05-29T06:53:54.288Z,12.33
2018-05-29T06:56:21.037Z,13.20
2018-05-29T06:58:47.839Z,15.83
2018-05-29T07:01:14.615Z,11.20
2018-05-29T07:03:41.422Z,15.00
2018-05-29T07:06:08.233Z,10.53
2018-05-29T07:08:35.038Z,15.57
2018-05-29T07:11:01.798Z,11.47
2018-05-29T07:13:28.609Z,10.50
2018-05-29T07:15:55.365Z,17.93
2018-05-29T07:18:22.179Z,13.80
2018-05-29T07:20:48.964Z,12.77
2018-05-29T07:23:15.728Z,12.37
2018-05-29T07:25:42.492Z,18.23
2018-05-29T07:28:09.353Z,10.63
2018-05-29T07:30:36.133Z,13.27
2018-05-29T07:33:02.935Z,14.27
2018-05-29T07:35:29.724Z,14.43
2018-05-29T07:37:56.653Z,11.90
2018-05-29T07:40:23.467Z,21.43
2018-05-29T07:42:50.253Z,20.07
2018-05-29T07:45:17.121Z,14.50
2018-05-29T07:47:43.849Z,15.13
2018-05-29T07:50:10.647Z,11.87
2018-05-29T07:52:37.434Z,11.87
2018-05-29T07:55:04.212Z,11.37
2018-05-29T07:57:31.009Z,12.33
2018-05-29T07:59:57.814Z,15.33
2018-05-29T08:02:24.569Z,14.80
2018-05-29T08:04:51.396Z,12.10
2018-05-29T08:07:18.181Z,12.43
2018-05-29T08:09:44.956Z,13.63
2018-05-29T08:12:11.796Z,13.90
2018-05-29T08:14:38.563Z,11.70
2018-05-29T08:17:05.347Z,11.13
2018-05-29T08:19:32.163Z,12.17
2018-05-29T08:21:58.957Z,16.20
2018-05-29T08:24:25.745Z,15.40
2018-05-29T08:26:52.565Z,11.70
2018-05-29T08:29:19.331Z,20.60
2018-05-29T08:31:46.130Z,17.10
2018-05-29T08:34:12.930Z,11.50
2018-05-29T08:36:39.714Z,16.97
2018-05-29T08:39:06.502Z,14.40
2018-05-29T08:41:33.309Z,12.70
2018-05-29T08:44:00.068Z,16.40
2018-05-29T08:46:26.945Z,13.07
2018-05-29T08:48:53.722Z,13.43
2018-05-29T08:51:20.472Z,16.43
2018-05-29T08:53:47.313Z,16.83
2018-05-29T08:56:14.154Z,11.90
2018-05-29T08:58:40.935Z,12.03
2018-05-29T09:01:07.669Z,15.40
2018-05-29T09:03:34.484Z,17.00
2018-05-29T09:06:01.237Z,10.47
2018-05-29T09:08:28.024Z,10.67
2018-05-29T09:10:54.816Z,17.40
2018-05-29T09:13:21.589Z,15.20
2018-05-29T09:15:48.384Z,15.33
2018-05-29T09:18:15.167Z,19.43
2018-05-29T09:20:41.933Z,12.70
2018-05-29T09:23:08.684Z,15.03
2018-05-29T09:25:35.482Z,13.47
2018-05-29T09:28:02.226Z,15.50
2018-05-29T09:30:28.990Z,13.33
2018-05-29T09:32:55.789Z,15.60
2018-05-29T09:35:22.548Z,16.83
2018-05-29T09:37:49.307Z,14.60
2018-05-29T09:40:16.184Z,14.17
2018-05-29T09:42:42.940Z,13.87
2018-05-29T09:45:09.701Z,15.13
2018-05-29T09:47:36.497Z,17.97
2018-05-29T09:50:03.291Z,17.27
2018-05-29T09:52:30.056Z,12.63
2018-05-29T09:54:56.873Z,15.00
2018-05-29T09:57:23.652Z,17.00
2018-05-29T09:59:50.411Z,16.93
2018-05-29T10:02:17.207Z,15.50
2018-05-29T10:04:43.971Z,16.37
2018-05-29T10:07:10.777Z,12.30
2018-05-29T10:09:37.550Z,21.13
2018-05-29T10:12:04.328Z,20.27
2018-05-29T10:14:31.095Z,18.13
2018-05-29T10:16:57.919Z,35.90
2018-05-29T10:19:24.757Z,15.33
2018-05-29T10:21:51.527Z,16.27
2018-05-29T10:24:18.309Z,14.93
2018-05-29T10:26:45.080Z,14.10
2018-05-29T10:29:11.840Z,15.03
2018-05-29T10:31:38.638Z,16.73
2018-05-29T10:34:05.412Z,19.13
2018-05-29T10:36:32.162Z,18.80
2018-05-29T10:38:58.987Z,17.10
2018-05-29T10:41:25.767Z,17.10
2018-05-29T10:43:52.521Z,16.80
2018-05-29T10:46:19.328Z,14.40
2018-05-29T10:48:46.107Z,14.47
2018-05-29T10:51:12.906Z,17.20
2018-05-29T10:53:39.714Z,16.67
2018-05-29T10:56:06.546Z,15.53
2018-05-29T10:58:33.308Z,18.53
2018-05-29T11:01:00.103Z,26.53
2018-05-29T11:03:26.883Z,19.07
2018-05-29T11:05:53.661Z,17.30
2018-05-29T11:08:20.468Z,17.00
2018-05-29T11:10:47.253Z,18.20
2018-05-29T11:13:14.028Z,18.20
2018-05-29T11:15:40.829Z,14.30
2018-05-29T11:18:07.608Z,17.90
2018-05-29T11:20:34.400Z,16.13
2018-05-29T11:23:02.055Z,16.37
2018-05-29T11:25:28.836Z,13.30
2018-05-29T11:27:55.616Z,15.30
2018-05-29T11:30:22.408Z,16.23
2018-05-29T11:32:49.188Z,16.73
2018-05-29T11:35:16.269Z,15.00
2018-05-29T11:37:43.696Z,16.33
2018-05-29T11:40:10.467Z,15.80
2018-05-29T11:42:37.226Z,22.03
2018-05-29T11:45:04.129Z,18.57
2018-05-29T11:47:30.873Z,15.33
2018-05-29T11:49:57.653Z,17.10
2018-05-29T11:52:24.444Z,23.07
2018-05-29T11:54:51.278Z,20.10
2018-05-29T11:57:18.040Z,16.57
2018-05-29T11:59:44.825Z,14.87
2018-05-29T12:02:11.597Z,17.47
2018-05-29T12:04:38.352Z,14.97
2018-05-29T12:07:05.187Z,16.07
2018-05-29T12:09:31.952Z,17.93
2018-05-29T12:12:04.570Z,16.63
2018-05-29T12:14:31.349Z,15.40
2018-05-29T12:16:58.160Z,17.97
2018-05-29T12:19:24.916Z,18.60
2018-05-29T12:21:51.701Z,13.77
2018-05-29T12:24:18.520Z,13.50
2018-05-29T12:26:45.313Z,12.57
2018-05-29T12:29:12.129Z,15.13
2018-05-29T12:31:39.658Z,14.13
2018-05-29T12:34:06.457Z,12.07
2018-05-29T12:36:33.300Z,12.80
2018-05-29T12:39:00.071Z,21.70
2018-05-29T12:41:26.864Z,12.40
2018-05-29T12:43:53.645Z,13.60
2018-05-29T12:46:20.436Z,12.20
2018-05-29T12:48:47.204Z,14.57
2018-05-29T12:51:14.032Z,10.43
2018-05-29T12:53:40.799Z,14.23
2018-05-29T12:56:07.581Z,11.57
2018-05-29T12:58:34.388Z,11.47
2018-05-29T13:01:01.160Z,13.13
2018-05-29T13:03:27.941Z,13.67
2018-05-29T13:05:54.757Z,12.40
2018-05-29T13:08:21.502Z,11.53
2018-05-29T13:10:48.271Z,10.60
2018-05-29T13:13:19.358Z,11.10
2018-05-29T13:15:46.125Z,10.70
2018-05-29T13:18:12.897Z,11.83
2018-05-29T13:20:39.693Z,12.20
2018-05-29T13:23:06.467Z,12.40
2018-05-29T13:25:33.251Z,9.40
2018-05-29T13:28:00.065Z,13.73
2018-05-29T13:30:26.816Z,9.93
2018-05-29T13:32:53.568Z,8.80
2018-05-29T13:35:20.424Z,9.57
2018-05-29T13:37:47.150Z,9.47
2018-05-29T13:40:13.912Z,12.90
2018-05-29T13:42:40.711Z,9.33
2018-05-29T13:45:07.480Z,11.53
2018-05-29T13:47:34.419Z,11.83
2018-05-29T13:50:01.215Z,7.53
2018-05-29T13:52:27.998Z,7.07
2018-05-29T13:54:54.746Z,7.30
2018-05-29T13:57:21.536Z,9.53
2018-05-29T13:59:48.295Z,8.30
2018-05-29T14:02:15.065Z,7.30
2018-05-29T14:04:41.907Z,7.20
2018-05-29T14:07:08.644Z,6.97
2018-05-29T14:09:35.404Z,7.63
2018-05-29T14:12:02.217Z,8.97
2018-05-29T14:14:28.975Z,7.27
2018-05-29T14:16:56.208Z,17.13
2018-05-29T14:19:22.998Z,13.13
2018-05-29T14:21:49.822Z,5.60
2018-05-29T14:24:16.602Z,5.47
2018-05-29T14:26:43.420Z,11.37
2018-05-29T14:29:10.174Z,6.00
2018-05-29T14:31:36.951Z,7.00
2018-05-29T14:34:03.770Z,6.00
2018-05-29T14:36:30.509Z,5.63
2018-05-29T14:38:57.279Z,18.13
2018-05-29T14:41:24.071Z,8.37
2018-05-29T14:43:50.881Z,7.20
2018-05-29T14:46:17.661Z,11.83
2018-05-29T14:48:44.477Z,7.67
2018-05-29T14:51:11.221Z,7.50
2018-05-29T14:53:37.977Z,9.50
2018-05-29T14:56:04.757Z,6.60
2018-05-29T14:58:31.552Z,6.90
2018-05-29T15:00:58.323Z,4.83
2018-05-29T15:03:25.179Z,8.63
2018-05-29T15:05:51.900Z,9.67
2018-05-29T15:08:18.649Z,7.80
2018-05-29T15:10:45.464Z,6.43
2018-05-29T15:13:12.224Z,5.60
2018-05-29T15:15:39.009Z,10.13
2018-05-29T15:18:06.532Z,5.50
2018-05-29T15:20:33.301Z,9.10
2018-05-29T15:23:00.439Z,5.93
2018-05-29T15:25:27.235Z,5.60
2018-05-29T15:27:53.986Z,6.50
2018-05-29T15:30:20.756Z,10.47
2018-05-29T15:32:47.556Z,10.83
2018-05-29T15:35:14.293Z,6.27
2018-05-29T15:37:41.060Z,13.60
2018-05-29T15:40:07.878Z,7.70
2018-05-29T15:42:34.681Z,5.50
2018-05-29T15:45:01.444Z,6.20
2018-05-29T15:47:28.251Z,12.70
2018-05-29T15:49:55.027Z,5.10
2018-05-29T15:52:22.505Z,6.70
2018-05-29T15:54:49.274Z,6.70
2018-05-29T15:57:16.047Z,6.93
2018-05-29T15:59:42.791Z,6.03
2018-05-29T16:02:09.574Z,7.50
2018-05-29T16:04:36.328Z,11.43
2018-05-29T16:07:03.084Z,7.63
2018-05-29T16:09:29.880Z,4.60
2018-05-29T16:11:56.653Z,9.33
2018-05-29T16:14:23.406Z,7.53
2018-05-29T16:16:50.212Z,6.13
2018-05-29T16:19:16.967Z,6.10
2018-05-29T16:21:43.713Z,7.63
2018-05-29T16:24:10.496Z,7.90
2018-05-29T16:26:37.280Z,6.13
2018-05-29T16:29:04.021Z,6.60
2018-05-29T16:31:30.851Z,6.40
2018-05-29T16:33:57.602Z,5.80
2018-05-29T16:36:24.368Z,6.60
2018-05-29T16:38:51.168Z,6.87
2018-05-29T16:41:17.914Z,9.37
2018-05-29T16:43:44.656Z,9.23
2018-05-29T16:46:11.852Z,6.10
2018-05-29T16:48:38.632Z,7.33
2018-05-29T16:51:05.841Z,5.93
2018-05-29T16:53:32.668Z,5.63
2018-05-29T16:55:59.447Z,7.00
2018-05-29T16:58:26.220Z,16.13
2018-05-29T17:00:53.039Z,8.43
2018-05-29T17:03:19.802Z,7.43
2018-05-29T17:05:46.565Z,9.93
2018-05-29T17:08:13.376Z,7.27
2018-05-29T17:10:40.133Z,7.77
2018-05-29T17:13:06.890Z,5.93
2018-05-29T17:15:33.690Z,6.57
2018-05-29T17:18:00.457Z,6.63
2018-05-29T17:20:27.229Z,15.83
2018-05-29T17:22:54.035Z,8.60
2018-05-29T17:25:20.804Z,5.90
2018-05-29T17:27:47.580Z,5.57
2018-05-29T17:30:14.423Z,12.43
2018-05-29T17:32:41.177Z,5.90
2018-05-29T17:35:07.953Z,5.70
2018-05-29T17:37:34.752Z,6.30
2018-05-29T17:40:01.540Z,8.30
2018-05-29T17:42:28.311Z,9.63
2018-05-29T17:44:55.164Z,5.67
2018-05-29T17:47:21.924Z,6.87
2018-05-29T17:49:48.708Z,8.57
2018-05-29T17:52:15.576Z,8.53
2018-05-29T17:54:42.321Z,5.53
2018-05-29T17:57:09.076Z,7.30
2018-05-29T17:59:35.883Z,5.70
2018-05-29T18:02:02.648Z,6.47
2018-05-29T18:04:29.433Z,6.10
2018-05-29T18:06:56.255Z,7.07
2018-05-29T18:09:23.045Z,11.40
2018-05-29T18:11:49.813Z,5.23
2018-05-29T18:14:16.624Z,7.97
2018-05-29T18:16:43.392Z,7.73
2018-05-29T18:19:10.145Z,5.00
2018-05-29T18:21:36.959Z,6.20
2018-05-29T18:24:04.220Z,6.90
2018-05-29T18:26:31.505Z,5.73
2018-05-29T18:28:58.289Z,5.27
2018-05-29T18:31:25.071Z,10.23
2018-05-29T18:33:51.841Z,6.03
2018-05-29T18:36:18.653Z,5.20
2018-05-29T18:38:45.417Z,10.60
2018-05-29T18:41:12.480Z,4.93
2018-05-29T18:43:39.288Z,6.57
2018-05-29T18:46:06.055Z,5.37
2018-05-29T18:48:33.163Z,6.73
2018-05-29T18:50:59.953Z,7.40
2018-05-29T18:53:26.732Z,6.30
2018-05-29T18:55:53.617Z,7.73
2018-05-29T18:58:20.425Z,11.40
2018-05-29T19:00:47.188Z,6.73
2018-05-29T19:03:13.939Z,5.80
2018-05-29T19:05:41.348Z,6.07
2018-05-29T19:08:08.410Z,8.10
2018-05-29T19:10:35.221Z,7.47
2018-05-29T19:13:02.011Z,6.30
2018-05-29T19:15:28.797Z,10.87
2018-05-29T19:17:55.639Z,9.43
2018-05-29T19:20:22.791Z,6.67
2018-05-29T19:22:49.592Z,5.87
2018-05-29T19:25:16.754Z,9.50
2018-05-29T19:27:43.915Z,8.13
2018-05-29T19:30:10.700Z,5.87
2018-05-29T19:32:37.473Z,12.10
2018-05-29T19:35:04.288Z,5.80
2018-05-29T19:37:31.033Z,6.53
2018-05-29T19:39:57.784Z,9.37
2018-05-29T19:42:24.602Z,7.00
2018-05-29T19:44:51.405Z,5.63
2018-05-29T19:47:18.172Z,18.13
2018-05-29T19:49:44.958Z,9.20
2018-05-29T19:52:11.998Z,10.70
2018-05-29T19:54:38.893Z,9.83
2018-05-29T19:57:05.938Z,6.50
2018-05-29T19:59:32.725Z,5.20
2018-05-29T20:01:59.732Z,6.60
2018-05-29T20:04:26.811Z,5.40
2018-05-29T20:06:53.633Z,5.60
2018-05-29T20:09:20.411Z,9.37
2018-05-29T20:11:47.226Z,6.63
2018-05-29T20:14:14.241Z,4.90
2018-05-29T20:16:40.997Z,5.60
2018-05-29T20:19:07.807Z,6.93
2018-05-29T20:21:34.608Z,13.00
2018-05-29T20:24:01.380Z,7.67
2018-05-29T20:26:28.601Z,5.63
2018-05-29T20:28:55.375Z,5.60
2018-05-29T20:31:22.195Z,4.50
2018-05-29T20:33:48.998Z,5.77
2018-05-29T20:36:16.009Z,7.20
2018-05-29T20:38:42.761Z,4.57
2018-05-29T20:41:10.255Z,7.17
2018-05-29T20:43:37.497Z,9.97
2018-05-29T20:46:04.276Z,6.60
2018-05-29T20:48:31.103Z,9.00
2018-05-29T20:50:57.877Z,5.10
2018-05-29T20:53:24.652Z,5.77
2018-05-29T20:55:51.459Z,15.53
2018-05-29T20:58:18.205Z,8.27
2018-05-29T21:00:44.988Z,28.60
2018-05-29T21:03:11.786Z,8.20
2018-05-29T21:05:38.530Z,6.20
2018-05-29T21:08:05.431Z,5.87
2018-05-29T21:10:32.217Z,6.23
2018-05-29T21:12:58.983Z,7.80
2018-05-29T21:15:25.767Z,5.20
2018-05-29T21:17:52.593Z,6.23
2018-05-29T21:20:19.392Z,6.13
2018-05-29T21:22:46.451Z,6.50
2018-05-29T21:25:13.248Z,8.83
2018-05-29T21:27:40.032Z,7.30
2018-05-29T21:30:06.773Z,6.60
2018-05-29T21:32:33.548Z,5.23
2018-05-29T21:35:00.298Z,6.40
2018-05-29T21:37:27.048Z,6.20
2018-05-29T21:39:53.845Z,8.73
2018-05-29T21:42:20.611Z,7.13
2018-05-29T21:44:47.349Z,6.40
2018-05-29T21:47:14.173Z,8.70
2018-05-29T21:49:40.928Z,7.90
2018-05-29T21:52:07.677Z,12.63
2018-05-29T21:54:34.464Z,7.07
2018-05-29T21:57:01.240Z,10.50
2018-05-29T21:59:28.002Z,9.13
2018-05-29T22:01:54.810Z,11.80
2018-05-29T22:04:21.549Z,9.57
2018-05-29T22:06:48.315Z,7.80
2018-05-29T22:09:15.137Z,8.40
2018-05-29T22:11:41.897Z,6.93
2018-05-29T22:14:08.701Z,7.57
2018-05-29T22:16:35.480Z,6.30
2018-05-29T22:19:02.252Z,10.67
2018-05-29T22:21:29.024Z,8.10
2018-05-29T22:23:55.832Z,8.27
2018-05-29T22:26:22.573Z,9.13
2018-05-29T22:28:49.347Z,8.80
2018-05-29T22:31:16.125Z,8.70
2018-05-29T22:33:42.915Z,27.90
2018-05-29T22:36:09.657Z,7.40
2018-05-29T22:38:36.456Z,8.20
2018-05-29T22:41:03.235Z,9.90
2018-05-29T22:43:29.977Z,5.83
2018-05-29T22:45:56.771Z,11.83
2018-05-29T22:48:23.546Z,10.00
2018-05-29T22:50:50.338Z,8.70
2018-05-29T22:53:17.131Z,8.37
2018-05-29T22:55:43.899Z,10.63
2018-05-29T22:58:10.661Z,11.70
2018-05-29T23:00:37.459Z,9.23
2018-05-29T23:03:04.204Z,7.80
2018-05-29T23:05:30.945Z,8.80
2018-05-29T23:07:57.717Z,8.67
2018-05-29T23:10:24.501Z,8.87
2018-05-29T23:12:51.277Z,9.87
2018-05-29T23:15:18.053Z,7.10
2018-05-29T23:17:44.821Z,17.23
2018-05-29T23:20:11.584Z,9.40
2018-05-29T23:22:38.399Z,11.60
2018-05-29T23:25:05.172Z,8.10
2018-05-29T23:27:31.946Z,9.70
2018-05-29T23:29:58.756Z,10.00
2018-05-29T23:32:25.501Z,7.27
2018-05-29T23:34:52.271Z,7.00
2018-05-29T23:37:19.054Z,10.10
2018-05-29T23:39:45.832Z,8.40
2018-05-29T23:42:12.568Z,7.43
2018-05-29T23:44:39.361Z,7.63
2018-05-29T23:47:06.342Z,6.83
2018-05-29T23:49:33.093Z,7.30
2018-05-29T23:51:59.882Z,10.60
2018-05-29T23:54:26.626Z,9.40
2018-05-29T23:56:53.394Z,7.30
2018-05-29T23:59:20.182Z,9.23
